createdAt,value
2018-05-24T00:00:02.638Z,20.63
2018-05-24T00:01:08.395Z,20.63
2018-05-24T00:02:14.147Z,20.63
2018-05-24T00:03:19.899Z,20.61
2018-05-24T00:04:25.651Z,20.62
2018-05-24T00:05:31.439Z,20.62
2018-05-24T00:06:37.208Z,20.64
2018-05-24T00:07:42.967Z,20.60
2018-05-24T00:08:48.732Z,20.57
2018-05-24T00:09:54.487Z,20.58
2018-05-24T00:11:01.032Z,20.59
2018-05-24T00:12:06.827Z,20.60
2018-05-24T00:13:12.608Z,20.60
2018-05-24T00:14:18.361Z,20.59
2018-05-24T00:15:23.788Z,20.59
2018-05-24T00:16:29.560Z,20.59
2018-05-24T00:17:36.088Z,20.60
2018-05-24T00:18:41.849Z,20.57
2018-05-24T00:19:48.383Z,20.57
2018-05-24T00:20:54.135Z,20.58
2018-05-24T00:21:59.920Z,20.56
2018-05-24T00:23:05.691Z,20.59
2018-05-24T00:24:11.471Z,20.60
2018-05-24T00:25:18.004Z,20.62
2018-05-24T00:26:23.768Z,20.63
2018-05-24T00:27:29.547Z,20.66
2018-05-24T00:28:35.303Z,20.64
2018-05-24T00:29:41.051Z,20.63
2018-05-24T00:30:46.809Z,20.64
2018-05-24T00:31:52.574Z,20.65
2018-05-24T00:32:58.350Z,20.64
2018-05-24T00:34:04.115Z,20.68
2018-05-24T00:35:09.868Z,20.63
2018-05-24T00:36:15.622Z,20.66
2018-05-24T00:37:21.388Z,20.67
2018-05-24T00:38:27.925Z,20.67
2018-05-24T00:39:33.683Z,20.72
2018-05-24T00:40:40.199Z,20.74
2018-05-24T00:41:45.972Z,20.75
2018-05-24T00:42:51.731Z,20.76
2018-05-24T00:43:58.283Z,20.74
2018-05-24T00:45:04.065Z,20.73
2018-05-24T00:46:09.819Z,20.73
2018-05-24T00:47:15.572Z,20.76
2018-05-24T00:48:21.361Z,20.78
2018-05-24T00:49:27.125Z,20.80
2018-05-24T00:50:32.557Z,20.79
2018-05-24T00:51:39.088Z,20.78
2018-05-24T00:52:44.843Z,20.78
2018-05-24T00:53:51.387Z,20.77
2018-05-24T00:56:40.831Z,20.76
2018-05-24T00:57:46.591Z,20.76
2018-05-24T00:58:52.390Z,20.78
2018-05-24T00:59:58.156Z,20.80
2018-05-24T01:01:03.904Z,20.82
2018-05-24T01:02:09.670Z,20.83
2018-05-24T01:03:16.937Z,20.85
2018-05-24T01:04:22.716Z,20.84
2018-05-24T01:05:28.973Z,20.87
2018-05-24T01:06:34.731Z,20.88
2018-05-24T01:07:40.491Z,20.89
2018-05-24T01:08:46.311Z,20.89
2018-05-24T01:09:52.087Z,20.89
2018-05-24T01:10:57.856Z,20.88
2018-05-24T01:12:03.607Z,20.83
2018-05-24T01:13:10.127Z,20.81
2018-05-24T01:14:15.884Z,20.84
2018-05-24T01:15:21.671Z,20.83
2018-05-24T01:16:27.420Z,20.82
2018-05-24T01:17:33.183Z,20.85
2018-05-24T01:18:38.931Z,20.88
2018-05-24T01:19:44.684Z,20.87
2018-05-24T01:20:50.472Z,20.88
2018-05-24T01:21:56.229Z,20.88
2018-05-24T01:23:01.985Z,20.88
2018-05-24T01:24:07.405Z,20.84
2018-05-24T01:25:13.161Z,20.86
2018-05-24T01:26:18.606Z,20.85
2018-05-24T01:27:24.403Z,20.84
2018-05-24T01:28:30.926Z,20.89
2018-05-24T01:29:36.686Z,20.86
2018-05-24T01:30:42.449Z,20.81
2018-05-24T01:31:48.784Z,20.79
2018-05-24T01:32:54.534Z,20.81
2018-05-24T01:34:01.052Z,20.76
2018-05-24T01:35:06.806Z,20.71
2018-05-24T01:36:12.588Z,20.70
2018-05-24T01:37:35.970Z,20.70
2018-05-24T01:38:41.726Z,20.71
2018-05-24T01:39:47.466Z,20.72
2018-05-24T01:40:53.332Z,20.71
2018-05-24T01:41:59.087Z,20.69
2018-05-24T01:43:04.863Z,20.64
2018-05-24T01:44:10.616Z,20.63
2018-05-24T01:45:16.383Z,20.63
2018-05-24T01:46:22.141Z,20.62
2018-05-24T01:47:29.402Z,20.63
2018-05-24T01:48:35.182Z,20.65
2018-05-24T01:49:40.951Z,20.63
2018-05-24T01:50:46.916Z,20.62
2018-05-24T01:51:52.671Z,20.62
2018-05-24T01:52:58.451Z,20.61
2018-05-24T01:54:03.964Z,20.60
2018-05-24T01:55:09.700Z,20.59
2018-05-24T01:56:15.450Z,20.55
2018-05-24T01:57:21.199Z,20.53
2018-05-24T01:58:26.984Z,20.56
2018-05-24T01:59:32.748Z,20.55
2018-05-24T02:00:38.505Z,20.57
2018-05-24T02:01:44.251Z,20.63
2018-05-24T02:02:49.999Z,20.56
2018-05-24T02:03:55.770Z,20.56
2018-05-24T02:05:02.284Z,20.56
2018-05-24T02:06:08.032Z,20.53
2018-05-24T02:07:13.791Z,20.46
2018-05-24T02:08:19.545Z,20.37
2018-05-24T02:09:26.102Z,20.35
2018-05-24T02:10:31.846Z,20.31
2018-05-24T02:11:37.591Z,20.26
2018-05-24T02:12:44.112Z,20.23
2018-05-24T02:13:49.879Z,20.15
2018-05-24T02:14:55.635Z,20.16
2018-05-24T02:16:02.172Z,20.12
2018-05-24T02:17:07.916Z,20.08
2018-05-24T02:18:13.675Z,20.05
2018-05-24T02:19:20.204Z,20.00
2018-05-24T02:20:25.976Z,19.97
2018-05-24T02:21:32.493Z,19.96
2018-05-24T02:22:38.240Z,19.95
2018-05-24T02:23:44.018Z,19.92
2018-05-24T02:24:49.975Z,19.91
2018-05-24T02:25:56.484Z,19.88
2018-05-24T02:27:02.247Z,19.80
2018-05-24T02:28:07.990Z,19.81
2018-05-24T02:29:13.746Z,19.83
2018-05-24T02:30:19.521Z,19.80
2018-05-24T02:31:25.278Z,19.75
2018-05-24T02:32:31.018Z,19.73
2018-05-24T02:33:36.771Z,19.69
2018-05-24T02:34:42.523Z,19.67
2018-05-24T02:35:48.473Z,19.63
2018-05-24T02:36:54.299Z,19.63
2018-05-24T02:38:00.051Z,19.58
2018-05-24T02:39:05.716Z,19.59
2018-05-24T02:40:11.471Z,19.59
2018-05-24T02:41:17.239Z,19.54
2018-05-24T02:42:22.990Z,19.54
2018-05-24T02:43:28.738Z,19.50
2018-05-24T02:44:34.479Z,19.50
2018-05-24T02:45:40.229Z,19.52
2018-05-24T02:46:46.001Z,19.51
2018-05-24T02:47:51.750Z,19.48
2018-05-24T02:48:58.274Z,19.49
2018-05-24T02:50:04.024Z,19.52
2018-05-24T02:51:09.779Z,19.48
2018-05-24T02:52:15.560Z,19.47
2018-05-24T02:53:21.322Z,19.44
2018-05-24T02:54:27.097Z,19.44
2018-05-24T02:55:32.604Z,19.45
2018-05-24T02:56:38.343Z,19.48
2018-05-24T02:57:44.111Z,19.49
2018-05-24T02:58:49.873Z,19.43
2018-05-24T02:59:55.623Z,19.43
2018-05-24T03:01:02.163Z,19.42
2018-05-24T03:02:07.915Z,19.42
2018-05-24T03:03:13.692Z,19.47
2018-05-24T03:04:19.455Z,19.49
2018-05-24T03:05:25.407Z,19.49
2018-05-24T03:06:31.148Z,19.49
2018-05-24T03:07:36.903Z,19.49
2018-05-24T03:08:42.722Z,19.47
2018-05-24T03:09:48.474Z,19.43
2018-05-24T03:10:54.210Z,19.39
2018-05-24T03:12:00.019Z,19.37
2018-05-24T03:13:06.539Z,19.39
2018-05-24T03:14:12.350Z,19.38
2018-05-24T03:15:18.287Z,19.40
2018-05-24T03:16:24.047Z,19.38
2018-05-24T03:17:29.802Z,19.35
2018-05-24T03:18:35.571Z,19.38
2018-05-24T03:19:41.346Z,19.42
2018-05-24T03:20:47.094Z,19.44
2018-05-24T03:21:52.843Z,19.40
2018-05-24T03:22:58.591Z,19.41
2018-05-24T03:24:04.376Z,19.42
2018-05-24T03:25:10.151Z,19.40
2018-05-24T03:26:16.667Z,19.41
2018-05-24T03:27:22.419Z,19.41
2018-05-24T03:28:28.939Z,19.43
2018-05-24T03:29:34.691Z,19.35
2018-05-24T03:30:40.465Z,19.30
2018-05-24T03:31:46.229Z,19.28
2018-05-24T03:32:52.739Z,19.27
2018-05-24T03:33:58.491Z,19.25
2018-05-24T03:35:04.244Z,19.25
2018-05-24T03:36:10.025Z,19.22
2018-05-24T03:37:15.767Z,19.14
2018-05-24T03:38:21.523Z,19.13
2018-05-24T03:39:27.298Z,19.17
2018-05-24T03:40:33.055Z,19.18
2018-05-24T03:41:38.833Z,19.17
2018-05-24T03:42:44.575Z,19.16
2018-05-24T03:43:50.347Z,19.11
2018-05-24T03:44:56.097Z,19.11
2018-05-24T03:46:01.850Z,19.13
2018-05-24T03:47:07.636Z,19.09
2018-05-24T03:48:14.150Z,19.06
2018-05-24T03:49:19.895Z,19.05
2018-05-24T03:50:27.157Z,19.05
2018-05-24T03:51:32.981Z,19.02
2018-05-24T03:52:38.914Z,18.97
2018-05-24T03:53:44.744Z,18.95
2018-05-24T03:54:51.267Z,18.95
2018-05-24T03:55:57.027Z,18.94
2018-05-24T03:57:03.550Z,18.97
2018-05-24T03:58:09.324Z,18.94
2018-05-24T04:01:40.615Z,18.89
2018-05-24T04:03:03.171Z,18.84
2018-05-24T04:04:25.974Z,18.81
2018-05-24T04:05:32.492Z,18.84
2018-05-24T04:06:38.248Z,18.87
2018-05-24T04:07:44.015Z,18.83
2018-05-24T04:08:50.645Z,18.83
2018-05-24T04:09:56.415Z,18.84
2018-05-24T04:11:02.939Z,18.85
2018-05-24T04:12:08.691Z,18.86
2018-05-24T04:13:15.971Z,18.85
2018-05-24T04:14:21.740Z,18.83
2018-05-24T04:15:28.349Z,18.86
2018-05-24T04:16:34.114Z,18.85
2018-05-24T04:17:39.857Z,18.83
2018-05-24T04:18:45.627Z,18.91
2018-05-24T04:19:51.396Z,18.90
2018-05-24T04:20:57.160Z,18.91
2018-05-24T04:22:02.952Z,18.93
2018-05-24T04:23:10.136Z,18.94
2018-05-24T04:24:15.912Z,18.95
2018-05-24T04:25:21.715Z,18.96
2018-05-24T04:26:28.309Z,18.94
2018-05-24T04:27:34.104Z,18.93
2018-05-24T04:28:40.502Z,18.89
2018-05-24T04:29:46.265Z,18.94
2018-05-24T04:30:52.019Z,18.98
2018-05-24T04:31:58.554Z,19.01
2018-05-24T04:33:04.393Z,18.95
2018-05-24T04:34:10.315Z,18.99
2018-05-24T04:35:16.069Z,18.97
2018-05-24T04:36:21.827Z,18.97
2018-05-24T04:37:27.597Z,18.98
2018-05-24T04:38:34.859Z,18.97
2018-05-24T04:39:40.629Z,18.91
2018-05-24T04:40:47.147Z,18.93
2018-05-24T04:41:52.903Z,18.88
2018-05-24T04:42:58.664Z,18.85
2018-05-24T04:44:05.176Z,18.92
2018-05-24T04:45:10.942Z,18.91
2018-05-24T04:46:16.472Z,18.90
2018-05-24T04:47:22.233Z,18.93
2018-05-24T04:48:27.987Z,18.95
2018-05-24T04:49:33.734Z,18.96
2018-05-24T04:50:39.510Z,19.00
2018-05-24T04:51:45.280Z,19.01
2018-05-24T04:52:51.054Z,19.05
2018-05-24T04:53:56.799Z,19.10
2018-05-24T04:55:03.321Z,19.10
2018-05-24T04:56:09.094Z,19.13
2018-05-24T04:57:14.848Z,19.14
2018-05-24T04:58:21.358Z,19.16
2018-05-24T04:59:27.163Z,19.18
2018-05-24T05:00:33.679Z,19.25
2018-05-24T05:01:39.539Z,19.27
2018-05-24T05:02:45.417Z,19.26
2018-05-24T05:03:51.173Z,19.27
2018-05-24T05:04:56.923Z,19.28
2018-05-24T05:06:02.676Z,19.29
2018-05-24T05:07:08.464Z,19.34
2018-05-24T05:08:15.000Z,19.37
2018-05-24T05:09:20.750Z,19.39
2018-05-24T05:10:26.528Z,19.40
2018-05-24T05:11:32.294Z,19.40
2018-05-24T05:12:38.073Z,19.43
2018-05-24T05:13:43.847Z,19.45
2018-05-24T05:14:50.357Z,19.45
2018-05-24T05:15:56.170Z,19.46
2018-05-24T05:17:01.934Z,19.46
2018-05-24T05:18:07.707Z,19.43
2018-05-24T05:19:14.219Z,19.46
2018-05-24T05:20:19.983Z,19.43
2018-05-24T05:21:26.559Z,19.40
2018-05-24T05:22:32.195Z,19.35
2018-05-24T05:23:37.988Z,19.41
2018-05-24T05:24:43.780Z,19.42
2018-05-24T05:25:49.535Z,19.39
2018-05-24T05:26:55.064Z,19.44
2018-05-24T05:28:00.821Z,19.45
2018-05-24T05:29:07.388Z,19.47
2018-05-24T05:30:13.908Z,19.51
2018-05-24T05:31:19.748Z,19.55
2018-05-24T05:32:25.569Z,19.62
2018-05-24T05:33:31.352Z,19.61
2018-05-24T05:34:37.143Z,19.62
2018-05-24T05:35:42.894Z,19.63
2018-05-24T05:36:49.859Z,19.59
2018-05-24T05:37:55.632Z,19.60
2018-05-24T05:39:01.408Z,19.54
2018-05-24T05:40:07.951Z,19.59
2018-05-24T05:41:13.738Z,19.58
2018-05-24T05:42:20.378Z,19.57
2018-05-24T05:43:26.914Z,19.47
2018-05-24T05:44:32.666Z,19.46
2018-05-24T05:45:38.550Z,19.41
2018-05-24T05:46:44.347Z,19.45
2018-05-24T05:47:50.171Z,19.38
2018-05-24T05:48:56.000Z,19.33
2018-05-24T05:50:01.759Z,19.28
2018-05-24T05:51:07.577Z,19.13
2018-05-24T05:52:13.349Z,19.11
2018-05-24T05:53:19.103Z,19.05
2018-05-24T05:54:25.642Z,18.99
2018-05-24T05:55:31.391Z,18.97
2018-05-24T05:56:37.151Z,18.95
2018-05-24T05:57:43.662Z,18.94
2018-05-24T05:58:49.412Z,18.90
2018-05-24T05:59:55.191Z,18.38
2018-05-24T06:01:01.124Z,17.69
2018-05-24T06:02:07.484Z,17.24
2018-05-24T06:03:14.011Z,16.84
2018-05-24T06:04:19.783Z,16.59
2018-05-24T06:05:26.322Z,16.50
2018-05-24T06:06:32.086Z,16.43
2018-05-24T06:07:37.895Z,16.44
2018-05-24T06:08:43.679Z,16.39
2018-05-24T06:09:50.216Z,16.40
2018-05-24T06:10:56.029Z,16.41
2018-05-24T06:12:01.836Z,16.41
2018-05-24T06:13:07.717Z,16.42
2018-05-24T06:14:13.545Z,16.42
2018-05-24T06:15:19.659Z,16.43
2018-05-24T06:16:26.247Z,16.43
2018-05-24T06:17:32.045Z,16.46
2018-05-24T06:18:37.894Z,16.46
2018-05-24T06:19:43.693Z,16.47
2018-05-24T06:20:49.540Z,16.50
2018-05-24T06:21:55.468Z,16.51
2018-05-24T06:23:01.126Z,16.50
2018-05-24T06:24:06.997Z,16.53
2018-05-24T06:25:12.790Z,16.61
2018-05-24T06:26:18.752Z,16.66
2018-05-24T06:27:24.798Z,16.70
2018-05-24T06:28:30.675Z,16.73
2018-05-24T06:29:37.356Z,16.79
2018-05-24T06:30:43.932Z,16.87
2018-05-24T06:31:50.679Z,16.95
2018-05-24T06:32:56.456Z,17.02
2018-05-24T06:34:02.226Z,17.04
2018-05-24T06:35:08.866Z,17.07
2018-05-24T06:36:14.667Z,17.10
2018-05-24T06:37:20.603Z,17.10
2018-05-24T06:38:26.551Z,17.13
2018-05-24T06:39:32.337Z,17.14
2018-05-24T06:40:38.261Z,17.19
2018-05-24T06:41:44.182Z,17.27
2018-05-24T06:42:50.001Z,17.33
2018-05-24T06:43:55.784Z,17.40
2018-05-24T06:45:02.317Z,17.49
2018-05-24T06:46:08.139Z,17.56
2018-05-24T06:47:13.960Z,17.62
2018-05-24T06:48:19.893Z,17.69
2018-05-24T06:49:25.659Z,17.82
2018-05-24T06:50:31.446Z,17.87
2018-05-24T06:51:37.252Z,17.88
2018-05-24T06:52:43.058Z,17.91
2018-05-24T06:53:49.814Z,17.93
2018-05-24T06:54:55.839Z,17.99
2018-05-24T06:56:02.403Z,18.03
2018-05-24T06:57:08.718Z,18.04
2018-05-24T06:58:14.547Z,18.00
2018-05-24T06:59:20.333Z,18.03
2018-05-24T07:00:26.116Z,18.06
2018-05-24T07:01:31.572Z,18.01
2018-05-24T07:02:37.380Z,18.05
2018-05-24T07:03:44.090Z,18.05
2018-05-24T07:04:49.885Z,18.06
2018-05-24T07:05:56.522Z,18.11
2018-05-24T07:07:03.403Z,18.05
2018-05-24T07:08:09.996Z,18.03
2018-05-24T07:09:15.856Z,18.05
2018-05-24T07:10:21.786Z,18.09
2018-05-24T07:11:27.568Z,18.04
2018-05-24T07:12:34.275Z,18.06
2018-05-24T07:13:40.941Z,18.04
2018-05-24T07:14:47.485Z,18.04
2018-05-24T07:15:53.264Z,18.03
2018-05-24T07:16:59.040Z,18.03
2018-05-24T07:18:04.531Z,18.02
2018-05-24T07:19:10.375Z,18.06
2018-05-24T07:20:16.303Z,18.12
2018-05-24T07:21:22.995Z,18.15
2018-05-24T07:22:28.775Z,18.17
2018-05-24T07:23:34.582Z,18.12
2018-05-24T07:24:40.486Z,18.09
2018-05-24T07:25:46.511Z,18.05
2018-05-24T07:26:52.311Z,18.04
2018-05-24T07:27:58.236Z,18.15
2018-05-24T07:29:04.786Z,18.16
2018-05-24T07:30:10.771Z,18.23
2018-05-24T07:31:16.575Z,18.28
2018-05-24T07:32:22.378Z,18.30
2018-05-24T07:33:28.192Z,18.37
2018-05-24T07:34:33.999Z,18.41
2018-05-24T07:35:40.653Z,18.41
2018-05-24T07:36:46.451Z,18.42
2018-05-24T07:37:52.313Z,18.44
2018-05-24T07:38:59.013Z,18.45
2018-05-24T07:40:04.675Z,18.49
2018-05-24T07:41:10.844Z,18.55
2018-05-24T07:42:16.667Z,18.60
2018-05-24T07:43:22.439Z,18.68
2018-05-24T07:44:28.216Z,18.74
2018-05-24T07:45:34.155Z,18.84
2018-05-24T07:46:39.967Z,18.98
2018-05-24T07:47:45.761Z,19.07
2018-05-24T07:48:51.523Z,19.17
2018-05-24T07:49:57.410Z,19.29
2018-05-24T07:51:03.227Z,19.37
2018-05-24T07:52:09.189Z,19.44
2018-05-24T07:53:15.023Z,19.52
2018-05-24T07:54:20.844Z,19.60
2018-05-24T07:55:26.624Z,19.63
2018-05-24T07:56:32.403Z,19.68
2018-05-24T07:57:38.976Z,19.73
2018-05-24T07:58:45.516Z,19.80
2018-05-24T07:59:51.293Z,19.86
2018-05-24T08:00:57.069Z,19.93
2018-05-24T08:02:02.850Z,20.03
2018-05-24T08:03:08.692Z,20.05
2018-05-24T08:04:14.484Z,20.08
2018-05-24T08:05:20.481Z,20.08
2018-05-24T08:06:26.256Z,20.09
2018-05-24T08:07:32.079Z,20.20
2018-05-24T08:08:38.631Z,20.24
2018-05-24T08:09:45.170Z,20.20
2018-05-24T08:10:50.966Z,20.24
2018-05-24T08:11:56.563Z,20.27
2018-05-24T08:13:02.360Z,20.22
2018-05-24T08:14:08.134Z,20.19
2018-05-24T08:15:13.904Z,20.22
2018-05-24T08:16:20.451Z,20.29
2018-05-24T08:17:26.231Z,20.39
2018-05-24T08:18:32.801Z,20.49
2018-05-24T08:19:38.584Z,20.57
2018-05-24T08:20:44.567Z,20.63
2018-05-24T08:21:51.109Z,20.69
2018-05-24T08:22:56.897Z,20.74
2018-05-24T08:24:02.698Z,20.77
2018-05-24T08:25:08.447Z,20.82
2018-05-24T08:26:15.012Z,20.85
2018-05-24T08:27:21.764Z,20.87
2018-05-24T08:28:28.303Z,20.94
2018-05-24T08:29:34.092Z,20.97
2018-05-24T08:30:39.893Z,21.08
2018-05-24T08:31:45.737Z,21.19
2018-05-24T08:32:51.516Z,21.25
2018-05-24T08:33:58.047Z,21.39
2018-05-24T08:35:03.888Z,21.56
2018-05-24T08:36:09.844Z,21.73
2018-05-24T08:37:16.379Z,21.82
2018-05-24T08:38:22.286Z,21.89
2018-05-24T08:39:28.080Z,21.96
2018-05-24T08:40:33.880Z,22.01
2018-05-24T08:41:39.737Z,22.01
2018-05-24T08:42:45.639Z,22.12
2018-05-24T08:43:51.443Z,22.21
2018-05-24T08:44:57.232Z,22.26
2018-05-24T08:46:03.042Z,22.33
2018-05-24T08:47:08.887Z,22.42
2018-05-24T08:48:14.789Z,22.49
2018-05-24T08:49:20.560Z,22.60
2018-05-24T08:50:26.339Z,22.64
2018-05-24T08:51:32.899Z,22.66
2018-05-24T08:52:39.445Z,22.77
2018-05-24T08:53:46.019Z,22.80
2018-05-24T08:54:51.799Z,22.96
2018-05-24T08:55:57.563Z,23.13
2018-05-24T08:57:03.346Z,23.33
2018-05-24T08:58:09.120Z,23.46
2018-05-24T08:59:14.945Z,23.57
2018-05-24T09:00:20.713Z,23.64
2018-05-24T09:01:26.566Z,23.76
2018-05-24T09:02:32.512Z,23.86
2018-05-24T09:03:38.284Z,24.07
2018-05-24T09:04:44.068Z,24.28
2018-05-24T09:05:49.841Z,24.45
2018-05-24T09:06:55.633Z,24.60
2018-05-24T09:08:02.176Z,24.73
2018-05-24T09:09:08.866Z,24.92
2018-05-24T09:10:15.491Z,25.21
2018-05-24T09:11:22.040Z,25.54
2018-05-24T09:12:27.833Z,25.83
2018-05-24T09:13:33.609Z,26.08
2018-05-24T09:14:39.411Z,26.21
2018-05-24T09:15:45.191Z,26.24
2018-05-24T09:16:50.973Z,26.11
2018-05-24T09:17:57.531Z,26.07
2018-05-24T09:19:04.081Z,25.95
2018-05-24T09:20:09.894Z,25.87
2018-05-24T09:21:15.855Z,25.84
2018-05-24T09:22:21.645Z,25.88
2018-05-24T09:23:27.464Z,25.92
2018-05-24T09:24:34.029Z,25.94
2018-05-24T09:25:39.788Z,25.93
2018-05-24T09:26:45.560Z,25.87
2018-05-24T09:27:51.339Z,25.87
2018-05-24T09:28:57.148Z,26.01
2018-05-24T09:30:02.943Z,26.05
2018-05-24T09:31:08.708Z,26.13
2018-05-24T09:32:14.501Z,26.25
2018-05-24T09:33:20.302Z,26.16
2018-05-24T09:34:26.115Z,26.07
2018-05-24T09:35:32.659Z,25.94
2018-05-24T09:36:38.643Z,26.00
2018-05-24T09:37:44.645Z,25.89
2018-05-24T09:38:51.295Z,25.76
2018-05-24T09:39:57.252Z,25.82
2018-05-24T09:41:03.042Z,25.75
2018-05-24T09:42:08.884Z,25.59
2018-05-24T09:43:14.865Z,25.54
2018-05-24T09:44:20.817Z,25.53
2018-05-24T09:45:27.646Z,25.60
2018-05-24T09:46:33.694Z,25.58
2018-05-24T09:47:39.452Z,25.57
2018-05-24T09:48:45.027Z,25.55
2018-05-24T09:49:51.662Z,25.56
2018-05-24T09:50:57.462Z,25.51
2018-05-24T09:52:04.041Z,25.51
2018-05-24T09:53:09.844Z,25.58
2018-05-24T09:54:15.650Z,25.56
2018-05-24T09:55:21.483Z,25.44
2018-05-24T09:56:27.252Z,25.47
2018-05-24T09:57:33.020Z,25.46
2018-05-24T09:58:38.793Z,25.42
2018-05-24T09:59:44.554Z,25.44
2018-05-24T10:00:50.312Z,25.43
2018-05-24T10:01:56.099Z,25.40
2018-05-24T10:03:02.620Z,25.32
2018-05-24T10:04:08.389Z,25.28
2018-05-24T10:05:14.179Z,25.38
2018-05-24T10:06:19.972Z,25.47
2018-05-24T10:07:26.550Z,25.50
2018-05-24T10:08:36.267Z,25.55
2018-05-24T10:09:42.028Z,25.50
2018-05-24T10:10:48.821Z,25.50
2018-05-24T10:11:56.567Z,25.43
2018-05-24T10:13:03.112Z,25.46
2018-05-24T10:14:08.874Z,25.54
2018-05-24T10:15:15.402Z,25.59
2018-05-24T10:16:20.949Z,25.58
2018-05-24T10:17:26.824Z,25.65
2018-05-24T10:18:33.349Z,25.61
2018-05-24T10:19:39.683Z,25.66
2018-05-24T10:20:45.437Z,25.66
2018-05-24T10:21:51.208Z,25.71
2018-05-24T10:22:57.854Z,25.61
2018-05-24T10:24:04.406Z,25.56
2018-05-24T10:25:10.196Z,25.61
2018-05-24T10:26:16.076Z,25.67
2018-05-24T10:27:21.833Z,25.66
2018-05-24T10:28:27.709Z,25.69
2018-05-24T10:29:34.464Z,25.79
2018-05-24T10:30:41.063Z,25.69
2018-05-24T10:31:46.819Z,25.63
2018-05-24T10:32:52.613Z,25.54
2018-05-24T10:33:59.187Z,25.55
2018-05-24T10:35:05.874Z,25.58
2018-05-24T10:36:11.790Z,25.61
2018-05-24T10:37:18.319Z,25.61
2018-05-24T10:38:24.120Z,25.59
2018-05-24T10:39:29.955Z,25.57
2018-05-24T10:40:36.704Z,25.59
2018-05-24T10:41:43.265Z,25.60
2018-05-24T10:42:49.811Z,25.61
2018-05-24T10:43:56.434Z,25.53
2018-05-24T10:45:02.569Z,25.49
2018-05-24T10:46:08.392Z,25.48
2018-05-24T10:47:13.934Z,25.50
2018-05-24T10:48:19.744Z,25.46
2018-05-24T10:49:25.501Z,25.38
2018-05-24T10:50:32.031Z,25.37
2018-05-24T10:51:38.019Z,25.32
2018-05-24T10:52:43.860Z,25.31
2018-05-24T10:53:50.489Z,25.33
2018-05-24T10:54:56.347Z,25.32
2018-05-24T10:56:02.243Z,25.25
2018-05-24T10:57:08.316Z,25.26
2018-05-24T10:58:15.066Z,25.15
2018-05-24T10:59:21.126Z,25.10
2018-05-24T11:00:27.824Z,25.08
2018-05-24T11:01:34.730Z,25.07
2018-05-24T11:02:40.614Z,25.08
2018-05-24T11:03:46.542Z,25.12
2018-05-24T11:04:52.544Z,25.11
2018-05-24T11:05:59.325Z,25.08
2018-05-24T11:07:05.391Z,25.05
2018-05-24T11:08:11.352Z,25.01
2018-05-24T11:09:17.238Z,25.02
2018-05-24T11:10:23.169Z,25.01
2018-05-24T11:11:29.815Z,24.93
2018-05-24T11:12:36.437Z,24.82
2018-05-24T11:13:42.335Z,24.78
2018-05-24T11:14:48.972Z,24.86
2018-05-24T11:15:55.757Z,24.93
2018-05-24T11:17:01.653Z,24.91
2018-05-24T11:18:07.455Z,24.88
2018-05-24T11:19:13.232Z,24.96
2018-05-24T11:20:19.001Z,24.97
2018-05-24T11:21:24.877Z,25.00
2018-05-24T11:22:30.648Z,24.92
2018-05-24T11:23:36.445Z,24.90
2018-05-24T11:24:42.276Z,24.88
2018-05-24T11:25:48.165Z,24.86
2018-05-24T11:26:54.164Z,24.86
2018-05-24T11:27:59.992Z,24.82
2018-05-24T11:29:05.428Z,24.83
2018-05-24T11:30:11.217Z,24.87
2018-05-24T11:31:16.977Z,24.86
2018-05-24T11:32:23.267Z,24.95
2018-05-24T11:33:29.019Z,24.94
2018-05-24T11:34:34.863Z,24.94
2018-05-24T11:35:40.675Z,24.97
2018-05-24T11:36:46.460Z,24.97
2018-05-24T11:37:52.285Z,24.98
2018-05-24T11:38:58.060Z,24.93
2018-05-24T11:40:03.840Z,24.89
2018-05-24T11:41:09.624Z,25.01
2018-05-24T11:42:15.393Z,24.96
2018-05-24T11:43:21.209Z,24.95
2018-05-24T11:44:27.875Z,25.01
2018-05-24T11:45:34.142Z,25.11
2018-05-24T11:46:39.922Z,25.04
2018-05-24T11:47:46.495Z,24.99
2018-05-24T11:48:52.371Z,25.00
2018-05-24T11:50:00.492Z,24.98
2018-05-24T11:51:07.072Z,24.92
2018-05-24T11:52:13.631Z,24.92
2018-05-24T11:53:19.755Z,24.93
2018-05-24T11:54:26.655Z,24.94
2018-05-24T11:55:34.015Z,24.96
2018-05-24T11:56:39.819Z,24.93
2018-05-24T11:57:45.606Z,24.97
2018-05-24T11:58:52.597Z,24.90
2018-05-24T11:59:58.368Z,24.95
2018-05-24T12:01:04.127Z,24.96
2018-05-24T12:02:09.920Z,25.00
2018-05-24T12:03:16.592Z,25.01
2018-05-24T12:04:22.383Z,25.18
2018-05-24T12:05:28.164Z,25.24
2018-05-24T12:06:34.720Z,25.18
2018-05-24T12:07:40.516Z,25.21
2018-05-24T12:08:46.314Z,25.27
2018-05-24T12:09:52.668Z,25.32
2018-05-24T12:10:59.420Z,25.24
2018-05-24T12:12:05.263Z,25.23
2018-05-24T12:13:12.543Z,25.20
2018-05-24T12:14:19.091Z,25.21
2018-05-24T12:15:24.964Z,25.24
2018-05-24T12:16:31.480Z,25.27
2018-05-24T12:17:36.906Z,25.38
2018-05-24T12:18:42.688Z,25.47
2018-05-24T12:19:49.216Z,25.47
2018-05-24T12:20:54.985Z,25.51
2018-05-24T12:22:00.779Z,25.51
2018-05-24T12:23:05.872Z,25.54
2018-05-24T12:24:11.657Z,25.57
2018-05-24T12:25:17.424Z,25.58
2018-05-24T12:26:23.188Z,25.64
2018-05-24T12:27:29.709Z,25.70
2018-05-24T12:28:35.463Z,25.73
2018-05-24T12:29:41.263Z,25.77
2018-05-24T12:30:47.019Z,25.86
2018-05-24T12:31:52.782Z,25.82
2018-05-24T12:32:58.546Z,25.89
2018-05-24T12:34:05.072Z,25.89
2018-05-24T12:35:11.166Z,25.89
2018-05-24T12:36:17.152Z,25.88
2018-05-24T12:37:22.932Z,25.84
2018-05-24T12:38:28.686Z,25.84
2018-05-24T12:39:35.248Z,25.79
2018-05-24T12:40:41.020Z,25.77
2018-05-24T12:41:46.868Z,25.76
2018-05-24T12:42:53.031Z,25.77
2018-05-24T12:43:58.800Z,25.80
2018-05-24T12:45:06.193Z,25.89
2018-05-24T12:46:12.019Z,25.89
2018-05-24T12:47:18.012Z,25.87
2018-05-24T12:48:23.819Z,25.87
2018-05-24T12:49:30.389Z,25.91
2018-05-24T12:50:36.566Z,25.99
2018-05-24T12:51:42.392Z,26.03
2018-05-24T12:52:49.243Z,26.02
2018-05-24T12:53:55.163Z,26.04
2018-05-24T12:55:01.047Z,26.04
2018-05-24T12:56:07.621Z,26.07
2018-05-24T12:57:13.399Z,26.08
2018-05-24T12:58:19.179Z,26.15
2018-05-24T12:59:25.730Z,26.14
2018-05-24T13:00:31.511Z,26.10
2018-05-24T13:01:37.238Z,26.07
2018-05-24T13:02:43.760Z,26.06
2018-05-24T13:03:49.557Z,26.05
2018-05-24T13:04:55.317Z,26.02
2018-05-24T13:06:01.087Z,26.04
2018-05-24T13:07:06.892Z,26.02
2018-05-24T13:08:13.484Z,25.99
2018-05-24T13:09:19.292Z,25.99
2018-05-24T13:10:25.113Z,25.96
2018-05-24T13:11:31.716Z,25.89
2018-05-24T13:12:37.597Z,25.89
2018-05-24T13:13:43.508Z,25.90
2018-05-24T13:14:49.301Z,25.95
2018-05-24T13:15:56.064Z,25.99
2018-05-24T13:17:02.613Z,26.02
2018-05-24T13:18:08.587Z,26.07
2018-05-24T13:19:14.435Z,26.10
2018-05-24T13:20:20.963Z,26.14
2018-05-24T13:21:26.720Z,26.09
2018-05-24T13:22:33.481Z,26.04
2018-05-24T13:23:40.048Z,26.07
2018-05-24T13:24:45.839Z,26.11
2018-05-24T13:25:51.604Z,26.20
2018-05-24T13:26:57.367Z,26.22
2018-05-24T13:28:02.892Z,26.26
2018-05-24T13:29:08.786Z,26.31
2018-05-24T13:30:14.552Z,26.33
2018-05-24T13:31:20.307Z,26.30
2018-05-24T13:32:26.076Z,26.28
2018-05-24T13:33:31.871Z,26.30
2018-05-24T13:34:37.752Z,26.33
2018-05-24T13:35:46.067Z,26.32
2018-05-24T13:36:53.601Z,26.38
2018-05-24T13:38:00.445Z,26.45
2018-05-24T13:39:08.309Z,26.45
2018-05-24T13:40:14.251Z,26.43
2018-05-24T13:41:20.913Z,26.43
2018-05-24T13:42:27.469Z,26.47
2018-05-24T13:43:34.081Z,26.46
2018-05-24T13:44:39.857Z,26.41
2018-05-24T13:45:45.622Z,26.39
2018-05-24T13:46:51.367Z,26.34
2018-05-24T13:47:57.146Z,26.23
2018-05-24T13:49:02.891Z,26.26
2018-05-24T13:50:08.651Z,26.20
2018-05-24T13:51:14.428Z,26.24
2018-05-24T13:52:20.468Z,26.24
2018-05-24T13:53:26.245Z,26.17
2018-05-24T13:54:32.779Z,26.09
2018-05-24T13:55:38.562Z,26.12
2018-05-24T13:56:44.343Z,26.18
2018-05-24T13:57:49.779Z,26.13
2018-05-24T13:58:55.553Z,26.18
2018-05-24T14:00:01.308Z,26.18
2018-05-24T14:01:07.090Z,26.15
2018-05-24T14:02:12.874Z,26.16
2018-05-24T14:03:18.646Z,26.20
2018-05-24T14:04:24.412Z,26.18
2018-05-24T14:05:29.832Z,26.17
2018-05-24T14:07:41.383Z,26.25
2018-05-24T14:08:47.929Z,26.27
2018-05-24T14:09:54.464Z,26.28
2018-05-24T14:11:00.226Z,26.23
2018-05-24T14:12:05.998Z,26.21
2018-05-24T14:13:11.801Z,26.21
2018-05-24T14:14:17.582Z,26.17
2018-05-24T14:15:24.119Z,26.20